createdAt,value
2022-12-18T00:01:07.189Z,99465.19
2022-12-18T00:03:37.192Z,99462.91
2022-12-18T00:06:04.056Z,99467.28
2022-12-18T00:08:30.501Z,99466.22
2022-12-18T00:11:04.593Z,99466.09
2022-12-18T00:13:33.849Z,99462.00
2022-12-18T00:16:05.461Z,99462.00
2022-12-18T00:18:32.600Z,99461.13
2022-12-18T00:21:04.397Z,99468.84
2022-12-18T00:23:32.366Z,99465.25
2022-12-18T00:26:04.221Z,99460.78
2022-12-18T00:28:30.831Z,99464.16
2022-12-18T00:31:14.522Z,99462.47
2022-12-18T00:33:41.277Z,99457.31
2022-12-18T00:36:20.105Z,99456.03
2022-12-18T00:38:47.418Z,99461.53
2022-12-18T00:41:35.699Z,99461.41
2022-12-18T00:44:03.011Z,99472.38
2022-12-18T00:46:29.437Z,99468.06
2022-12-18T00:48:55.937Z,99475.69
2022-12-18T00:51:22.421Z,99470.97
2022-12-18T00:53:48.814Z,99463.78
2022-12-18T00:56:15.250Z,99466.31
2022-12-18T00:58:41.615Z,99467.94
2022-12-18T01:01:08.373Z,99473.63
2022-12-18T01:03:34.951Z,99476.66
2022-12-18T01:06:07.601Z,99476.25
2022-12-18T01:08:34.394Z,99484.50
2022-12-18T01:11:01.272Z,99489.97
2022-12-18T01:13:28.576Z,99485.03
2022-12-18T01:15:54.955Z,99483.69
2022-12-18T01:18:21.305Z,99489.31
2022-12-18T01:20:47.703Z,99491.50
2022-12-18T01:23:14.168Z,99492.00
2022-12-18T01:25:40.565Z,99484.69
2022-12-18T01:28:06.918Z,99489.22
2022-12-18T01:30:33.467Z,99489.22
2022-12-18T01:32:59.922Z,99500.44
2022-12-18T01:35:26.274Z,99496.00
2022-12-18T01:37:56.152Z,99497.59
2022-12-18T01:40:22.749Z,99509.44
2022-12-18T01:42:58.046Z,99505.78
2022-12-18T01:45:30.676Z,99498.66
2022-12-18T01:48:09.598Z,99507.91
2022-12-18T01:50:44.020Z,99510.50
2022-12-18T01:53:21.838Z,99505.03
2022-12-18T01:55:54.394Z,99513.41
2022-12-18T01:58:28.608Z,99520.00
2022-12-18T02:00:55.994Z,99520.47
2022-12-18T02:03:22.550Z,99521.00
2022-12-18T02:06:01.853Z,99512.06
2022-12-18T02:08:38.446Z,99511.84
2022-12-18T02:11:11.916Z,99514.06
2022-12-18T02:14:04.984Z,99518.53
2022-12-18T02:16:44.809Z,99512.81
2022-12-18T02:19:45.725Z,99519.31
2022-12-18T02:22:50.123Z,99524.97
2022-12-18T02:25:53.280Z,99522.97
2022-12-18T02:28:24.535Z,99524.44
2022-12-18T02:30:54.281Z,99522.25
2022-12-18T02:33:22.436Z,99520.84
2022-12-18T02:35:50.100Z,99519.47
2022-12-18T02:38:17.700Z,99511.22
2022-12-18T02:40:44.994Z,99511.75
2022-12-18T02:43:15.950Z,99502.28
2022-12-18T02:45:55.606Z,99519.97
2022-12-18T02:48:30.087Z,99521.28
2022-12-18T02:51:24.787Z,99529.38
2022-12-18T02:53:59.064Z,99532.53
2022-12-18T02:56:39.743Z,99535.66
2022-12-18T02:59:19.848Z,99540.75
2022-12-18T03:02:14.195Z,99516.59
2022-12-18T03:04:48.446Z,99520.94
2022-12-18T03:07:24.740Z,99524.06
2022-12-18T03:09:52.760Z,99516.34
2022-12-18T03:12:54.151Z,99506.59
2022-12-18T03:15:36.078Z,99504.81
2022-12-18T03:18:11.866Z,99499.72
2022-12-18T03:20:42.426Z,99512.69
2022-12-18T03:23:14.770Z,99505.53
2022-12-18T03:25:45.012Z,99503.09
2022-12-18T03:28:16.595Z,99514.25
2022-12-18T03:30:45.383Z,99522.78
2022-12-18T03:33:20.662Z,99531.31
2022-12-18T03:35:47.550Z,99527.41
2022-12-18T03:38:14.669Z,99531.38
2022-12-18T03:40:43.840Z,99518.13
2022-12-18T03:43:20.094Z,99523.00
2022-12-18T03:46:00.297Z,99524.66
2022-12-18T03:48:36.365Z,99525.19
2022-12-18T03:51:10.047Z,99523.91
2022-12-18T03:53:53.128Z,99528.94
2022-12-18T03:56:22.482Z,99523.06
2022-12-18T03:58:50.790Z,99518.38
2022-12-18T04:01:18.724Z,99519.66
2022-12-18T04:03:49.138Z,99520.25
2022-12-18T04:06:17.439Z,99520.75
2022-12-18T04:08:44.309Z,99519.75
2022-12-18T04:11:10.738Z,99534.16
2022-12-18T04:13:39.483Z,99537.44
2022-12-18T04:16:06.970Z,99545.16
2022-12-18T04:18:33.617Z,99544.97
2022-12-18T04:20:59.961Z,99543.38
2022-12-18T04:23:26.432Z,99543.22
2022-12-18T04:25:52.792Z,99530.16
2022-12-18T04:28:19.140Z,99537.03
2022-12-18T04:30:46.019Z,99546.72
2022-12-18T04:33:14.125Z,99550.34
2022-12-18T04:35:41.636Z,99551.44
2022-12-18T04:38:09.435Z,99553.03
2022-12-18T04:40:36.559Z,99540.69
2022-12-18T04:43:03.283Z,99558.50
2022-12-18T04:45:31.598Z,99554.75
2022-12-18T04:47:58.630Z,99556.91
2022-12-18T04:50:25.270Z,99563.56
2022-12-18T04:52:51.815Z,99557.28
2022-12-18T04:55:18.178Z,99550.50
2022-12-18T04:57:44.615Z,99547.72
2022-12-18T05:00:11.805Z,99550.06
2022-12-18T05:02:38.303Z,99542.00
2022-12-18T05:05:05.345Z,99544.53
2022-12-18T05:07:31.718Z,99546.03
2022-12-18T05:09:58.081Z,99548.47
2022-12-18T05:12:24.735Z,99544.03
2022-12-18T05:14:51.504Z,99535.41
2022-12-18T05:17:18.289Z,99537.09
2022-12-18T05:19:44.743Z,99534.78
2022-12-18T05:22:11.160Z,99541.44
2022-12-18T05:24:37.624Z,99543.69
2022-12-18T05:27:04.322Z,99538.16
2022-12-18T05:29:30.741Z,99561.06
2022-12-18T05:31:57.225Z,99548.81
2022-12-18T05:34:23.638Z,99549.38
2022-12-18T05:36:49.962Z,99545.44
2022-12-18T05:39:16.397Z,99542.59
2022-12-18T05:41:42.811Z,99537.03
2022-12-18T05:44:09.877Z,99539.28
2022-12-18T05:46:37.314Z,99542.22
2022-12-18T05:49:03.775Z,99545.31
2022-12-18T05:51:30.185Z,99545.97
2022-12-18T05:53:56.533Z,99548.75
2022-12-18T05:56:23.745Z,99542.91
2022-12-18T05:58:53.795Z,99551.53
2022-12-18T06:01:24.400Z,99556.00
2022-12-18T06:03:50.986Z,99553.72
2022-12-18T06:06:20.759Z,99553.47
2022-12-18T06:08:47.558Z,99559.00
2022-12-18T06:11:16.830Z,99562.72
2022-12-18T06:13:43.216Z,99571.81
2022-12-18T06:16:09.637Z,99564.84
2022-12-18T06:18:39.224Z,99565.34
2022-12-18T06:21:05.804Z,99562.59
2022-12-18T06:23:32.192Z,99561.41
2022-12-18T06:25:58.904Z,99556.97
2022-12-18T06:28:25.306Z,99563.56
2022-12-18T06:30:51.942Z,99568.97
2022-12-18T06:33:18.492Z,99585.84
2022-12-18T06:35:44.857Z,99586.06
2022-12-18T06:38:11.274Z,99581.66
2022-12-18T06:40:39.829Z,99581.56
2022-12-18T06:43:07.142Z,99586.22
2022-12-18T06:45:33.722Z,99598.06
2022-12-18T06:48:00.228Z,99583.34
2022-12-18T06:50:26.660Z,99586.13
2022-12-18T06:52:53.105Z,99587.16
2022-12-18T06:55:19.498Z,99594.69
2022-12-18T06:57:45.894Z,99586.88
2022-12-18T07:00:12.571Z,99588.00
2022-12-18T07:02:39.160Z,99586.78
2022-12-18T07:05:10.452Z,99596.47
2022-12-18T07:07:37.152Z,99588.81
2022-12-18T07:10:03.890Z,99592.63
2022-12-18T07:12:30.402Z,99582.63
2022-12-18T07:14:56.777Z,99588.63
2022-12-18T07:17:23.192Z,99594.06
2022-12-18T07:19:49.639Z,99580.72
2022-12-18T07:22:15.975Z,99573.75
2022-12-18T07:24:42.302Z,99570.41
2022-12-18T07:27:08.759Z,99575.41
2022-12-18T07:29:36.636Z,99578.25
2022-12-18T07:32:03.052Z,99579.97
2022-12-18T07:34:29.590Z,99580.53
2022-12-18T07:36:55.972Z,99597.22
2022-12-18T07:39:22.450Z,99597.84
2022-12-18T07:42:08.774Z,99599.06
2022-12-18T07:44:35.159Z,99609.22
2022-12-18T07:47:01.609Z,99606.19
2022-12-18T07:49:28.748Z,99620.81
2022-12-18T07:51:57.072Z,99626.66
2022-12-18T07:54:24.514Z,99617.56
2022-12-18T07:56:51.958Z,99624.16
2022-12-18T07:59:18.917Z,99619.66
2022-12-18T08:01:45.667Z,99626.00
2022-12-18T08:04:13.450Z,99629.25
2022-12-18T08:06:42.609Z,99630.53
2022-12-18T08:09:12.749Z,99631.47
2022-12-18T08:11:39.281Z,99625.81
2022-12-18T08:14:05.657Z,99626.13
2022-12-18T08:16:32.208Z,99633.28
2022-12-18T08:18:58.698Z,99638.72
2022-12-18T08:21:27.728Z,99635.63
2022-12-18T08:23:56.163Z,99625.03
2022-12-18T08:26:23.497Z,99631.91
2022-12-18T08:28:51.483Z,99629.59
2022-12-18T08:31:18.928Z,99636.66
2022-12-18T08:33:45.456Z,99631.34
2022-12-18T08:36:12.001Z,99628.66
2022-12-18T08:38:38.401Z,99630.22
2022-12-18T08:41:07.622Z,99643.94
2022-12-18T08:43:53.165Z,99637.78
2022-12-18T08:46:20.771Z,99630.78
2022-12-18T08:48:47.685Z,99635.72
2022-12-18T08:51:14.447Z,99635.72
2022-12-18T08:53:41.153Z,99637.59
2022-12-18T08:56:08.688Z,99629.94
2022-12-18T08:58:35.144Z,99623.13
2022-12-18T09:01:03.078Z,99626.28
2022-12-18T09:03:29.792Z,99622.63
2022-12-18T09:05:56.353Z,99622.84
2022-12-18T09:08:22.920Z,99618.84
2022-12-18T09:10:51.060Z,99617.72
2022-12-18T09:13:18.255Z,99625.06
2022-12-18T09:15:47.161Z,99623.78
2022-12-18T09:18:15.497Z,99628.06
2022-12-18T09:20:42.015Z,99622.94
2022-12-18T09:23:10.013Z,99629.44
2022-12-18T09:25:37.920Z,99628.28
2022-12-18T09:28:17.287Z,99623.25
2022-12-18T09:30:46.856Z,99620.78
2022-12-18T09:33:13.591Z,99623.03
2022-12-18T09:35:42.734Z,99624.31
2022-12-18T09:38:13.288Z,99622.84
2022-12-18T09:40:44.960Z,99610.31
2022-12-18T09:43:30.972Z,99627.06
2022-12-18T09:46:05.192Z,99613.16
2022-12-18T09:48:35.550Z,99608.00
2022-12-18T09:51:09.850Z,99602.88
2022-12-18T09:53:40.995Z,99603.19
2022-12-18T09:56:16.952Z,99601.56
2022-12-18T09:58:54.066Z,99607.91
2022-12-18T10:01:23.941Z,99606.72
2022-12-18T10:03:51.858Z,99605.47
2022-12-18T10:06:42.817Z,99599.84
2022-12-18T10:09:18.719Z,99607.00
2022-12-18T10:11:54.298Z,99598.38
2022-12-18T10:14:41.669Z,99597.06
2022-12-18T10:17:23.764Z,99586.66
2022-12-18T10:19:53.591Z,99586.44
2022-12-18T10:22:57.169Z,99582.59
2022-12-18T10:25:34.755Z,99582.06
2022-12-18T10:28:15.351Z,99577.25
2022-12-18T10:30:43.117Z,99577.41
2022-12-18T10:33:17.691Z,99581.63
2022-12-18T10:35:45.255Z,99578.81
2022-12-18T10:38:14.344Z,99577.56
2022-12-18T10:40:53.094Z,99570.53
2022-12-18T10:43:35.807Z,99584.63
2022-12-18T10:46:03.869Z,99586.06
2022-12-18T10:48:31.640Z,99587.94
2022-12-18T10:51:13.991Z,99593.91
2022-12-18T10:53:42.743Z,99592.63
2022-12-18T10:56:09.876Z,99597.06
2022-12-18T10:58:38.732Z,99596.31
2022-12-18T11:01:14.827Z,99600.09
2022-12-18T11:03:46.680Z,99599.44
2022-12-18T11:06:25.438Z,99608.31
2022-12-18T11:09:07.860Z,99606.88
2022-12-18T11:11:38.900Z,99613.03
2022-12-18T11:14:09.196Z,99608.94
2022-12-18T11:16:52.969Z,99597.59
2022-12-18T11:19:38.787Z,99574.53
2022-12-18T11:22:21.478Z,99572.75
2022-12-18T11:25:30.124Z,99572.75
2022-12-18T11:27:53.903Z,99580.22
2022-12-18T11:30:31.470Z,99569.94
2022-12-18T11:33:10.559Z,99576.53
2022-12-18T11:36:03.750Z,99572.44
2022-12-18T11:38:40.772Z,99570.72
2022-12-18T11:41:50.376Z,99562.94
2022-12-18T11:44:25.139Z,99554.25
2022-12-18T11:46:58.683Z,99551.97
2022-12-18T11:49:35.586Z,99546.41
2022-12-18T11:52:10.171Z,99539.00
2022-12-18T11:54:37.113Z,99544.06
2022-12-18T11:57:35.906Z,99536.44
2022-12-18T12:00:16.584Z,99529.50
2022-12-18T12:03:23.395Z,99525.03
2022-12-18T12:06:04.346Z,99526.56
2022-12-18T12:09:05.988Z,99524.91
2022-12-18T12:11:49.450Z,99541.53
2022-12-18T12:14:33.740Z,99536.91
2022-12-18T12:17:08.915Z,99537.34
2022-12-18T12:20:07.571Z,99523.44
2022-12-18T12:23:02.022Z,99513.91
2022-12-18T12:25:58.200Z,99512.16
2022-12-18T12:28:56.153Z,99511.50
2022-12-18T12:31:50.420Z,99518.38
2022-12-18T12:34:49.496Z,99522.56
2022-12-18T12:37:49.785Z,99522.56
2022-12-18T12:40:50.863Z,99520.88
2022-12-18T12:43:20.638Z,99514.72
2022-12-18T12:45:53.367Z,99515.09
2022-12-18T12:48:34.086Z,99514.16
2022-12-18T12:51:05.132Z,99511.44
2022-12-18T12:53:36.754Z,99514.72
2022-12-18T12:56:06.612Z,99508.53
2022-12-18T12:58:55.562Z,99503.66
2022-12-18T13:01:42.996Z,99501.13
2022-12-18T13:04:22.817Z,99495.91
2022-12-18T13:07:00.742Z,99492.28
2022-12-18T13:09:34.528Z,99493.44
2022-12-18T13:12:23.830Z,99502.91
2022-12-18T13:14:50.411Z,99490.38
2022-12-18T13:17:20.812Z,99484.44
2022-12-18T13:19:52.020Z,99484.75
2022-12-18T13:22:34.888Z,99486.13
2022-12-18T13:25:01.668Z,99486.31
2022-12-18T13:27:46.518Z,99495.72
2022-12-18T13:30:32.561Z,99501.78
2022-12-18T13:33:14.294Z,99495.63
2022-12-18T13:35:51.868Z,99482.03
2022-12-18T13:38:27.113Z,99486.63
2022-12-18T13:41:01.151Z,99485.19
2022-12-18T13:43:29.463Z,99490.69
2022-12-18T13:46:19.155Z,99492.19
2022-12-18T13:48:57.021Z,99492.34
2022-12-18T13:51:25.309Z,99491.63
2022-12-18T13:53:55.267Z,99494.44
2022-12-18T13:56:29.422Z,99486.72
2022-12-18T13:59:17.604Z,99484.13
2022-12-18T14:01:47.967Z,99488.31
2022-12-18T14:04:22.750Z,99483.41
2022-12-18T14:06:53.019Z,99481.81
2022-12-18T14:09:26.044Z,99475.56
2022-12-18T14:12:14.252Z,99475.13
2022-12-18T14:14:44.214Z,99472.53
2022-12-18T14:17:12.827Z,99465.31
2022-12-18T14:19:43.622Z,99470.44
2022-12-18T14:22:17.719Z,99461.25
2022-12-18T14:24:44.058Z,99463.53
2022-12-18T14:27:20.845Z,99459.69
2022-12-18T14:29:47.291Z,99469.19
2022-12-18T14:32:18.699Z,99469.69
2022-12-18T14:34:55.395Z,99475.75
2022-12-18T14:37:26.946Z,99478.47
2022-12-18T14:39:58.953Z,99483.44
2022-12-18T14:42:29.045Z,99491.38
2022-12-18T14:45:39.085Z,99486.13
2022-12-18T14:48:28.702Z,99486.63
2022-12-18T14:51:04.471Z,99482.13
2022-12-18T14:53:47.574Z,99482.75
2022-12-18T14:56:28.896Z,99488.78
2022-12-18T14:58:59.509Z,99490.97
2022-12-18T15:01:27.544Z,99493.41
2022-12-18T15:03:55.492Z,99489.22
2022-12-18T15:06:28.546Z,99483.69
2022-12-18T15:08:55.470Z,99494.78
2022-12-18T15:11:48.272Z,99498.91
2022-12-18T15:14:44.181Z,99501.72
2022-12-18T15:17:22.870Z,99500.97
2022-12-18T15:19:54.272Z,99496.50
2022-12-18T15:22:33.972Z,99488.03
2022-12-18T15:25:01.176Z,99488.81
2022-12-18T15:27:29.610Z,99488.91
2022-12-18T15:30:02.268Z,99488.91
2022-12-18T15:32:28.717Z,99491.88
2022-12-18T15:35:15.933Z,99501.63
2022-12-18T15:37:43.450Z,99497.28
2022-12-18T15:40:14.773Z,99506.75
2022-12-18T15:43:03.177Z,99507.88
2022-12-18T15:45:29.736Z,99496.72
2022-12-18T15:47:56.276Z,99505.47
2022-12-18T15:50:23.070Z,99495.03
2022-12-18T15:52:52.118Z,99503.59
2022-12-18T15:55:40.097Z,99503.69
2022-12-18T15:58:08.204Z,99506.03
2022-12-18T16:00:37.306Z,99510.88
2022-12-18T16:03:04.952Z,99509.53
2022-12-18T16:05:32.401Z,99504.41
2022-12-18T16:07:59.225Z,99506.03
2022-12-18T16:10:27.167Z,99486.56
2022-12-18T16:12:53.574Z,99480.88
2022-12-18T16:15:24.452Z,99484.88
2022-12-18T16:17:51.163Z,99493.06
2022-12-18T16:20:22.314Z,99495.41
2022-12-18T16:22:49.771Z,99489.72
2022-12-18T16:25:22.519Z,99503.19
2022-12-18T16:27:49.322Z,99501.59
2022-12-18T16:30:19.331Z,99496.41
2022-12-18T16:32:45.806Z,99497.22
2022-12-18T16:35:14.648Z,99491.75
2022-12-18T16:37:42.026Z,99492.13
2022-12-18T16:40:11.220Z,99481.59
2022-12-18T16:42:39.102Z,99480.69
2022-12-18T16:45:06.936Z,99476.88
2022-12-18T16:47:33.504Z,99479.38
2022-12-18T16:49:59.950Z,99481.50
2022-12-18T16:52:26.791Z,99485.88
2022-12-18T16:54:53.222Z,99481.78
2022-12-18T16:57:21.174Z,99483.28
2022-12-18T16:59:51.148Z,99490.06
2022-12-18T17:02:23.679Z,99482.06
2022-12-18T17:04:53.324Z,99479.47
2022-12-18T17:07:19.829Z,99479.56
2022-12-18T17:09:46.204Z,99477.97
2022-12-18T17:12:12.650Z,99481.50
2022-12-18T17:14:39.152Z,99478.91
2022-12-18T17:17:22.603Z,99477.06
2022-12-18T17:19:50.342Z,99476.13
2022-12-18T17:22:16.729Z,99476.03
2022-12-18T17:24:43.119Z,99474.25
2022-12-18T17:27:09.599Z,99471.28
2022-12-18T17:29:36.139Z,99469.31
2022-12-18T17:32:02.653Z,99459.66
2022-12-18T17:34:30.022Z,99463.00
2022-12-18T17:36:57.132Z,99462.53
2022-12-18T17:39:23.619Z,99466.50
2022-12-18T17:41:50.050Z,99459.91
2022-12-18T17:44:17.479Z,99456.38
2022-12-18T17:46:44.473Z,99450.31
2022-12-18T17:49:11.562Z,99450.31
2022-12-18T17:51:38.049Z,99448.28
2022-12-18T17:54:05.354Z,99451.72
2022-12-18T17:56:32.812Z,99451.34
2022-12-18T17:58:59.863Z,99454.19
2022-12-18T18:01:26.850Z,99456.31
2022-12-18T18:03:55.990Z,99455.75
2022-12-18T18:06:23.667Z,99460.59
2022-12-18T18:08:50.672Z,99451.69
2022-12-18T18:11:38.027Z,99454.28
2022-12-18T18:14:10.939Z,99452.44
2022-12-18T18:16:42.704Z,99451.38
2022-12-18T18:19:15.180Z,99450.00
2022-12-18T18:21:43.873Z,99445.34
2022-12-18T18:24:12.931Z,99442.88
2022-12-18T18:26:41.578Z,99443.25
2022-12-18T18:29:09.262Z,99436.00
2022-12-18T18:31:40.176Z,99432.84
2022-12-18T18:34:08.273Z,99436.94
2022-12-18T18:36:34.854Z,99439.44
2022-12-18T18:39:02.189Z,99440.22
2022-12-18T18:41:30.406Z,99447.09
2022-12-18T18:43:58.244Z,99440.97
2022-12-18T18:46:25.609Z,99446.38
2022-12-18T18:48:52.146Z,99439.53
2022-12-18T18:51:21.424Z,99445.69
2022-12-18T18:53:50.354Z,99444.94
2022-12-18T18:56:56.718Z,99435.44
2022-12-18T18:59:06.757Z,99433.88
2022-12-18T19:01:33.282Z,99429.59
2022-12-18T19:04:01.155Z,99437.97
2022-12-18T19:06:28.554Z,99432.28
2022-12-18T19:08:57.023Z,99428.38
2022-12-18T19:11:43.621Z,99421.78
2022-12-18T19:14:12.449Z,99422.16
2022-12-18T19:16:39.341Z,99421.81
2022-12-18T19:19:06.390Z,99421.91
2022-12-18T19:21:34.644Z,99416.69
2022-12-18T19:24:01.619Z,99421.72
2022-12-18T19:26:28.953Z,99424.88
2022-12-18T19:29:08.291Z,99408.22
2022-12-18T19:31:37.010Z,99406.38
2022-12-18T19:34:07.765Z,99405.16
2022-12-18T19:36:37.147Z,99405.84
2022-12-18T19:39:12.634Z,99407.00
2022-12-18T19:41:39.700Z,99404.13
2022-12-18T19:44:08.266Z,99403.03
2022-12-18T19:46:35.468Z,99392.13
2022-12-18T19:49:02.352Z,99395.47
2022-12-18T19:51:30.715Z,99402.19
2022-12-18T19:53:59.297Z,99407.50
2022-12-18T19:56:29.384Z,99417.25
2022-12-18T19:58:55.924Z,99407.38
2022-12-18T20:01:24.924Z,99405.31
2022-12-18T20:03:52.751Z,99403.50
2022-12-18T20:06:32.922Z,99403.75
2022-12-18T20:09:03.083Z,99388.31
2022-12-18T20:11:30.733Z,99386.75
2022-12-18T20:13:58.242Z,99407.09
2022-12-18T20:16:24.746Z,99410.28
2022-12-18T20:18:51.395Z,99411.31
2022-12-18T20:21:18.808Z,99409.53
2022-12-18T20:23:46.168Z,99396.22
2022-12-18T20:26:12.952Z,99402.38
2022-12-18T20:28:40.656Z,99410.47
2022-12-18T20:31:08.380Z,99407.13
2022-12-18T20:33:37.193Z,99407.41
2022-12-18T20:36:06.266Z,99402.00
2022-12-18T20:38:34.192Z,99400.06
2022-12-18T20:41:02.498Z,99402.00
2022-12-18T20:43:29.671Z,99396.69
2022-12-18T20:46:06.795Z,99400.25
2022-12-18T20:48:33.625Z,99398.28
2022-12-18T20:51:02.098Z,99401.53
2022-12-18T20:53:30.469Z,99400.69
2022-12-18T20:55:56.890Z,99390.91
2022-12-18T20:58:23.366Z,99392.22
2022-12-18T21:00:50.183Z,99382.34
2022-12-18T21:03:17.799Z,99376.59
2022-12-18T21:05:44.240Z,99361.88
2022-12-18T21:08:10.712Z,99368.59
2022-12-18T21:10:39.182Z,99373.69
2022-12-18T21:13:07.282Z,99373.69
2022-12-18T21:15:35.926Z,99363.56
2022-12-18T21:18:02.306Z,99372.28
2022-12-18T21:20:28.694Z,99374.84
2022-12-18T21:22:55.541Z,99359.94
2022-12-18T21:25:33.008Z,99367.94
2022-12-18T21:27:59.351Z,99373.06
2022-12-18T21:30:26.017Z,99375.47
2022-12-18T21:32:52.425Z,99368.31
2022-12-18T21:35:18.768Z,99364.22
2022-12-18T21:37:46.926Z,99372.13
2022-12-18T21:40:13.803Z,99360.59
2022-12-18T21:42:58.690Z,99361.81
2022-12-18T21:45:25.052Z,99358.38
2022-12-18T21:47:51.474Z,99360.44
2022-12-18T21:50:17.957Z,99355.88
2022-12-18T21:52:44.436Z,99358.66
2022-12-18T21:55:10.836Z,99355.88
2022-12-18T21:57:39.990Z,99354.94
2022-12-18T22:00:10.647Z,99356.50
2022-12-18T22:02:43.420Z,99351.41
2022-12-18T22:05:09.851Z,99340.88
2022-12-18T22:07:37.551Z,99349.13
2022-12-18T22:10:04.166Z,99340.53
2022-12-18T22:12:43.600Z,99328.06
2022-12-18T22:15:15.737Z,99326.09
2022-12-18T22:17:48.241Z,99326.09
2022-12-18T22:20:15.888Z,99331.75
2022-12-18T22:22:42.313Z,99341.31
2022-12-18T22:25:10.035Z,99337.03
2022-12-18T22:27:36.958Z,99324.09
2022-12-18T22:30:04.429Z,99332.03
2022-12-18T22:32:32.539Z,99330.16
2022-12-18T22:35:05.910Z,99333.38
2022-12-18T22:37:33.787Z,99341.75
2022-12-18T22:40:02.819Z,99347.69
2022-12-18T22:42:30.068Z,99341.34
2022-12-18T22:44:56.453Z,99330.75
2022-12-18T22:47:27.881Z,99327.31
2022-12-18T22:49:55.994Z,99315.28
2022-12-18T22:52:23.435Z,99318.09
2022-12-18T22:54:51.429Z,99348.34
2022-12-18T22:57:20.094Z,99345.34
2022-12-18T22:59:46.433Z,99332.91
2022-12-18T23:02:12.884Z,99327.31
2022-12-18T23:04:39.824Z,99315.19
2022-12-18T23:07:07.370Z,99316.41
2022-12-18T23:09:34.405Z,99305.06
2022-12-18T23:12:01.202Z,99302.34
2022-12-18T23:14:28.449Z,99303.19
2022-12-18T23:16:55.099Z,99316.88
2022-12-18T23:19:21.573Z,99318.16
2022-12-18T23:21:50.644Z,99330.06
2022-12-18T23:24:17.117Z,99342.69
2022-12-18T23:26:43.515Z,99344.72
2022-12-18T23:29:09.986Z,99336.78
2022-12-18T23:31:38.773Z,99331.22
2022-12-18T23:34:06.871Z,99347.06
2022-12-18T23:36:46.055Z,99354.31
2022-12-18T23:39:28.571Z,99365.28
2022-12-18T23:41:59.826Z,99367.88
2022-12-18T23:44:26.467Z,99357.66
2022-12-18T23:46:53.060Z,99337.78
2022-12-18T23:49:19.509Z,99334.72
2022-12-18T23:51:45.869Z,99335.56
2022-12-18T23:54:12.243Z,99330.34
2022-12-18T23:56:38.702Z,99323.16
2022-12-18T23:59:05.067Z,99317.97
